sensor_id;sensor_type;location;lat;lon;timestamp;P1;durP1;ratioP1;P2;durP2;ratioP2
2480;SDS011;57396;48.742;9.128;2023-04-25T00:01:26;6.63;;;3.40;;
2480;SDS011;57396;48.742;9.128;2023-04-25T00:03:52;3.70;;;3.40;;
2480;SDS011;57396;48.742;9.128;2023-04-25T00:06:17;5.10;;;3.33;;
2480;SDS011;57396;48.742;9.128;2023-04-25T00:08:43;4.40;;;3.03;;
2480;SDS011;57396;48.742;9.128;2023-04-25T00:11:08;5.20;;;3.07;;
2480;SDS011;57396;48.742;9.128;2023-04-25T00:13:33;3.33;;;2.70;;
2480;SDS011;57396;48.742;9.128;2023-04-25T00:15:59;4.23;;;2.90;;
2480;SDS011;57396;48.742;9.128;2023-04-25T00:18:25;3.70;;;3.20;;
2480;SDS011;57396;48.742;9.128;2023-04-25T00:20:53;2.70;;;2.50;;
2480;SDS011;57396;48.742;9.128;2023-04-25T00:23:19;3.90;;;3.23;;
2480;SDS011;57396;48.742;9.128;2023-04-25T00:25:45;3.27;;;3.03;;
2480;SDS011;57396;48.742;9.128;2023-04-25T00:28:11;2.87;;;2.67;;
2480;SDS011;57396;48.742;9.128;2023-04-25T00:30:37;4.67;;;2.90;;
2480;SDS011;57396;48.742;9.128;2023-04-25T00:33:03;3.90;;;2.40;;
2480;SDS011;57396;48.742;9.128;2023-04-25T00:35:28;3.67;;;3.00;;
2480;SDS011;57396;48.742;9.128;2023-04-25T00:37:54;3.30;;;3.00;;
2480;SDS011;57396;48.742;9.128;2023-04-25T00:40:20;2.83;;;2.63;;
2480;SDS011;57396;48.742;9.128;2023-04-25T00:42:45;4.27;;;3.33;;
2480;SDS011;57396;48.742;9.128;2023-04-25T00:45:12;3.33;;;3.00;;
2480;SDS011;57396;48.742;9.128;2023-04-25T00:47:39;6.00;;;2.90;;
2480;SDS011;57396;48.742;9.128;2023-04-25T00:50:05;2.63;;;2.43;;
2480;SDS011;57396;48.742;9.128;2023-04-25T00:52:31;2.77;;;2.57;;
2480;SDS011;57396;48.742;9.128;2023-04-25T00:54:57;2.53;;;2.00;;
2480;SDS011;57396;48.742;9.128;2023-04-25T00:57:22;2.80;;;2.13;;
2480;SDS011;57396;48.742;9.128;2023-04-25T00:59:48;8.53;;;2.70;;
2480;SDS011;57396;48.742;9.128;2023-04-25T01:02:16;2.77;;;2.57;;
2480;SDS011;57396;48.742;9.128;2023-04-25T01:04:42;5.03;;;2.37;;
2480;SDS011;57396;48.742;9.128;2023-04-25T01:07:07;2.80;;;2.50;;
2480;SDS011;57396;48.742;9.128;2023-04-25T01:09:34;4.80;;;2.70;;
2480;SDS011;57396;48.742;9.128;2023-04-25T01:12:00;3.13;;;2.27;;
2480;SDS011;57396;48.742;9.128;2023-04-25T01:14:26;4.40;;;2.20;;
2480;SDS011;57396;48.742;9.128;2023-04-25T01:16:51;2.93;;;2.60;;
2480;SDS011;57396;48.742;9.128;2023-04-25T01:19:18;2.50;;;2.30;;
2480;SDS011;57396;48.742;9.128;2023-04-25T01:21:44;2.50;;;2.30;;
2480;SDS011;57396;48.742;9.128;2023-04-25T01:24:10;4.27;;;2.57;;
2480;SDS011;57396;48.742;9.128;2023-04-25T01:26:35;2.50;;;2.17;;
2480;SDS011;57396;48.742;9.128;2023-04-25T01:29:01;4.43;;;2.47;;
2480;SDS011;57396;48.742;9.128;2023-04-25T01:31:29;6.17;;;2.90;;
2480;SDS011;57396;48.742;9.128;2023-04-25T01:33:55;4.43;;;2.40;;
2480;SDS011;57396;48.742;9.128;2023-04-25T01:36:20;2.40;;;2.13;;
2480;SDS011;57396;48.742;9.128;2023-04-25T01:38:46;4.63;;;2.60;;
2480;SDS011;57396;48.742;9.128;2023-04-25T01:41:12;4.30;;;2.80;;
2480;SDS011;57396;48.742;9.128;2023-04-25T01:43:39;3.60;;;2.80;;
2480;SDS011;57396;48.742;9.128;2023-04-25T01:46:04;4.23;;;2.40;;
2480;SDS011;57396;48.742;9.128;2023-04-25T01:48:30;3.00;;;2.33;;
2480;SDS011;57396;48.742;9.128;2023-04-25T01:50:55;3.50;;;2.37;;
2480;SDS011;57396;48.742;9.128;2023-04-25T01:53:21;2.47;;;2.23;;
2480;SDS011;57396;48.742;9.128;2023-04-25T01:55:47;3.30;;;2.37;;
2480;SDS011;57396;48.742;9.128;2023-04-25T01:58:13;4.67;;;2.43;;
2480;SDS011;57396;48.742;9.128;2023-04-25T02:00:38;2.50;;;2.30;;
2480;SDS011;57396;48.742;9.128;2023-04-25T02:03:05;5.73;;;2.70;;
2480;SDS011;57396;48.742;9.128;2023-04-25T02:05:35;4.80;;;2.60;;
2480;SDS011;57396;48.742;9.128;2023-04-25T02:08:02;4.60;;;2.60;;
2480;SDS011;57396;48.742;9.128;2023-04-25T02:10:28;3.00;;;2.10;;
2480;SDS011;57396;48.742;9.128;2023-04-25T02:12:54;2.60;;;2.40;;
2480;SDS011;57396;48.742;9.128;2023-04-25T02:15:19;2.50;;;2.10;;
2480;SDS011;57396;48.742;9.128;2023-04-25T02:17:44;2.90;;;2.10;;
2480;SDS011;57396;48.742;9.128;2023-04-25T02:20:10;3.17;;;2.30;;
2480;SDS011;57396;48.742;9.128;2023-04-25T02:22:36;3.60;;;2.20;;
2480;SDS011;57396;48.742;9.128;2023-04-25T02:25:02;2.67;;;2.07;;
2480;SDS011;57396;48.742;9.128;2023-04-25T02:27:29;2.33;;;2.10;;
2480;SDS011;57396;48.742;9.128;2023-04-25T02:29:55;2.23;;;1.80;;
2480;SDS011;57396;48.742;9.128;2023-04-25T02:32:20;3.80;;;2.40;;
2480;SDS011;57396;48.742;9.128;2023-04-25T02:34:46;3.40;;;2.30;;
2480;SDS011;57396;48.742;9.128;2023-04-25T02:37:11;3.80;;;2.30;;
2480;SDS011;57396;48.742;9.128;2023-04-25T02:39:37;2.53;;;2.00;;
2480;SDS011;57396;48.742;9.128;2023-04-25T02:42:02;2.73;;;2.40;;
2480;SDS011;57396;48.742;9.128;2023-04-25T02:44:28;3.50;;;2.30;;
2480;SDS011;57396;48.742;9.128;2023-04-25T02:46:53;5.30;;;2.30;;
2480;SDS011;57396;48.742;9.128;2023-04-25T02:49:18;4.53;;;2.27;;
2480;SDS011;57396;48.742;9.128;2023-04-25T02:51:44;3.53;;;2.00;;
2480;SDS011;57396;48.742;9.128;2023-04-25T02:54:09;3.80;;;2.17;;
2480;SDS011;57396;48.742;9.128;2023-04-25T02:56:35;2.20;;;2.00;;
2480;SDS011;57396;48.742;9.128;2023-04-25T02:59:00;4.73;;;2.40;;
2480;SDS011;57396;48.742;9.128;2023-04-25T03:01:26;3.00;;;2.60;;
2480;SDS011;57396;48.742;9.128;2023-04-25T03:03:51;2.40;;;2.20;;
2480;SDS011;57396;48.742;9.128;2023-04-25T03:06:17;3.50;;;2.33;;
2480;SDS011;57396;48.742;9.128;2023-04-25T03:08:42;2.40;;;2.20;;
2480;SDS011;57396;48.742;9.128;2023-04-25T03:11:08;4.60;;;2.73;;
2480;SDS011;57396;48.742;9.128;2023-04-25T03:13:33;3.00;;;2.30;;
2480;SDS011;57396;48.742;9.128;2023-04-25T03:16:00;4.77;;;2.50;;
2480;SDS011;57396;48.742;9.128;2023-04-25T03:18:26;3.30;;;1.90;;
2480;SDS011;57396;48.742;9.128;2023-04-25T03:20:51;3.53;;;2.63;;
2480;SDS011;57396;48.742;9.128;2023-04-25T03:23:16;3.90;;;2.30;;
2480;SDS011;57396;48.742;9.128;2023-04-25T03:25:42;3.43;;;2.30;;
2480;SDS011;57396;48.742;9.128;2023-04-25T03:28:07;3.10;;;2.30;;
2480;SDS011;57396;48.742;9.128;2023-04-25T03:30:33;2.60;;;2.40;;
2480;SDS011;57396;48.742;9.128;2023-04-25T03:32:58;2.87;;;2.27;;
2480;SDS011;57396;48.742;9.128;2023-04-25T03:35:24;3.00;;;2.00;;
2480;SDS011;57396;48.742;9.128;2023-04-25T03:37:50;4.33;;;2.33;;
2480;SDS011;57396;48.742;9.128;2023-04-25T03:40:15;2.33;;;2.13;;
2480;SDS011;57396;48.742;9.128;2023-04-25T03:42:41;5.40;;;2.20;;
2480;SDS011;57396;48.742;9.128;2023-04-25T03:45:06;2.40;;;2.20;;
2480;SDS011;57396;48.742;9.128;2023-04-25T03:47:32;2.53;;;2.27;;
2480;SDS011;57396;48.742;9.128;2023-04-25T03:49:58;2.63;;;2.10;;
2480;SDS011;57396;48.742;9.128;2023-04-25T03:52:25;2.77;;;2.23;;
2480;SDS011;57396;48.742;9.128;2023-04-25T03:54:51;3.43;;;2.00;;
2480;SDS011;57396;48.742;9.128;2023-04-25T03:57:16;6.13;;;2.10;;
2480;SDS011;57396;48.742;9.128;2023-04-25T03:59:41;5.43;;;3.10;;
2480;SDS011;57396;48.742;9.128;2023-04-25T04:02:07;7.33;;;2.47;;
2480;SDS011;57396;48.742;9.128;2023-04-25T04:04:32;3.40;;;2.33;;
2480;SDS011;57396;48.742;9.128;2023-04-25T04:06:58;3.67;;;2.57;;
2480;SDS011;57396;48.742;9.128;2023-04-25T04:09:23;2.73;;;2.40;;
2480;SDS011;57396;48.742;9.128;2023-04-25T04:11:49;2.70;;;2.50;;
2480;SDS011;57396;48.742;9.128;2023-04-25T04:14:14;4.33;;;3.00;;
2480;SDS011;57396;48.742;9.128;2023-04-25T04:16:40;5.40;;;3.47;;
2480;SDS011;57396;48.742;9.128;2023-04-25T04:19:05;4.23;;;2.70;;
2480;SDS011;57396;48.742;9.128;2023-04-25T04:21:31;6.80;;;2.57;;
2480;SDS011;57396;48.742;9.128;2023-04-25T04:23:57;2.87;;;2.30;;
2480;SDS011;57396;48.742;9.128;2023-04-25T04:26:22;3.27;;;2.70;;
2480;SDS011;57396;48.742;9.128;2023-04-25T04:28:51;3.87;;;3.03;;
2480;SDS011;57396;48.742;9.128;2023-04-25T04:31:17;2.83;;;2.60;;
2480;SDS011;57396;48.742;9.128;2023-04-25T04:33:44;5.27;;;2.80;;
2480;SDS011;57396;48.742;9.128;2023-04-25T04:36:10;3.87;;;2.80;;
2480;SDS011;57396;48.742;9.128;2023-04-25T04:38:36;5.53;;;2.93;;
2480;SDS011;57396;48.742;9.128;2023-04-25T04:41:01;5.00;;;3.23;;
2480;SDS011;57396;48.742;9.128;2023-04-25T04:43:28;5.87;;;2.93;;
2480;SDS011;57396;48.742;9.128;2023-04-25T04:45:54;5.73;;;2.70;;
2480;SDS011;57396;48.742;9.128;2023-04-25T04:48:21;5.00;;;3.07;;
2480;SDS011;57396;48.742;9.128;2023-04-25T04:50:47;4.30;;;3.10;;
2480;SDS011;57396;48.742;9.128;2023-04-25T04:53:12;3.17;;;2.87;;
2480;SDS011;57396;48.742;9.128;2023-04-25T04:55:38;3.80;;;2.43;;
2480;SDS011;57396;48.742;9.128;2023-04-25T04:58:04;4.90;;;2.90;;
2480;SDS011;57396;48.742;9.128;2023-04-25T05:00:29;5.53;;;2.87;;
2480;SDS011;57396;48.742;9.128;2023-04-25T05:02:55;5.90;;;2.67;;
2480;SDS011;57396;48.742;9.128;2023-04-25T05:05:21;3.17;;;2.90;;
2480;SDS011;57396;48.742;9.128;2023-04-25T05:07:47;4.03;;;2.70;;
2480;SDS011;57396;48.742;9.128;2023-04-25T05:10:12;8.93;;;3.40;;
2480;SDS011;57396;48.742;9.128;2023-04-25T05:12:38;6.70;;;3.47;;
2480;SDS011;57396;48.742;9.128;2023-04-25T05:15:03;4.60;;;3.37;;
2480;SDS011;57396;48.742;9.128;2023-04-25T05:17:29;4.93;;;3.20;;
2480;SDS011;57396;48.742;9.128;2023-04-25T05:19:55;5.73;;;3.67;;
2480;SDS011;57396;48.742;9.128;2023-04-25T05:22:20;4.43;;;3.10;;
2480;SDS011;57396;48.742;9.128;2023-04-25T05:24:45;5.37;;;3.30;;
2480;SDS011;57396;48.742;9.128;2023-04-25T05:27:11;5.47;;;3.30;;
2480;SDS011;57396;48.742;9.128;2023-04-25T05:29:36;3.83;;;3.40;;
2480;SDS011;57396;48.742;9.128;2023-04-25T05:32:02;5.00;;;3.57;;
2480;SDS011;57396;48.742;9.128;2023-04-25T05:34:27;5.90;;;3.47;;
2480;SDS011;57396;48.742;9.128;2023-04-25T05:36:53;5.30;;;3.73;;
2480;SDS011;57396;48.742;9.128;2023-04-25T05:39:18;7.70;;;3.90;;
2480;SDS011;57396;48.742;9.128;2023-04-25T05:41:44;5.17;;;3.87;;
2480;SDS011;57396;48.742;9.128;2023-04-25T05:44:09;5.53;;;3.97;;
2480;SDS011;57396;48.742;9.128;2023-04-25T05:46:35;4.43;;;3.73;;
2480;SDS011;57396;48.742;9.128;2023-04-25T05:49:00;3.97;;;3.50;;
2480;SDS011;57396;48.742;9.128;2023-04-25T05:51:26;6.03;;;3.60;;
2480;SDS011;57396;48.742;9.128;2023-04-25T05:53:52;5.40;;;3.30;;
2480;SDS011;57396;48.742;9.128;2023-04-25T05:56:18;3.50;;;3.20;;
2480;SDS011;57396;48.742;9.128;2023-04-25T05:58:43;3.73;;;2.90;;
2480;SDS011;57396;48.742;9.128;2023-04-25T06:01:09;5.70;;;3.63;;
2480;SDS011;57396;48.742;9.128;2023-04-25T06:03:35;4.03;;;3.63;;
2480;SDS011;57396;48.742;9.128;2023-04-25T06:06:00;3.60;;;3.30;;
2480;SDS011;57396;48.742;9.128;2023-04-25T06:08:25;3.47;;;3.17;;
2480;SDS011;57396;48.742;9.128;2023-04-25T06:10:51;3.57;;;3.27;;
2480;SDS011;57396;48.742;9.128;2023-04-25T06:13:17;4.23;;;3.80;;
2480;SDS011;57396;48.742;9.128;2023-04-25T06:15:42;3.10;;;2.83;;
2480;SDS011;57396;48.742;9.128;2023-04-25T06:18:08;4.03;;;3.10;;
2480;SDS011;57396;48.742;9.128;2023-04-25T06:20:33;4.30;;;3.20;;
2480;SDS011;57396;48.742;9.128;2023-04-25T06:22:59;3.57;;;2.90;;
2480;SDS011;57396;48.742;9.128;2023-04-25T06:25:24;4.97;;;3.47;;
2480;SDS011;57396;48.742;9.128;2023-04-25T06:27:50;3.93;;;3.50;;
2480;SDS011;57396;48.742;9.128;2023-04-25T06:30:15;3.90;;;3.30;;
2480;SDS011;57396;48.742;9.128;2023-04-25T06:32:43;5.70;;;3.67;;
2480;SDS011;57396;48.742;9.128;2023-04-25T06:35:08;3.70;;;3.40;;
2480;SDS011;57396;48.742;9.128;2023-04-25T06:37:34;5.60;;;4.07;;
2480;SDS011;57396;48.742;9.128;2023-04-25T06:39:59;5.23;;;3.63;;
2480;SDS011;57396;48.742;9.128;2023-04-25T06:42:25;4.90;;;3.67;;
2480;SDS011;57396;48.742;9.128;2023-04-25T06:44:50;3.83;;;3.50;;
2480;SDS011;57396;48.742;9.128;2023-04-25T06:47:16;5.10;;;3.70;;
2480;SDS011;57396;48.742;9.128;2023-04-25T06:49:41;4.73;;;3.70;;
2480;SDS011;57396;48.742;9.128;2023-04-25T06:52:07;6.43;;;3.93;;
2480;SDS011;57396;48.742;9.128;2023-04-25T06:54:32;7.10;;;5.27;;
2480;SDS011;57396;48.742;9.128;2023-04-25T06:56:58;8.60;;;6.27;;
2480;SDS011;57396;48.742;9.128;2023-04-25T06:59:23;5.90;;;5.30;;
2480;SDS011;57396;48.742;9.128;2023-04-25T07:01:49;9.50;;;5.60;;
2480;SDS011;57396;48.742;9.128;2023-04-25T07:04:14;7.17;;;5.73;;
2480;SDS011;57396;48.742;9.128;2023-04-25T07:06:40;7.03;;;5.20;;
2480;SDS011;57396;48.742;9.128;2023-04-25T07:09:08;5.00;;;4.20;;
2480;SDS011;57396;48.742;9.128;2023-04-25T07:11:35;6.10;;;4.60;;
2480;SDS011;57396;48.742;9.128;2023-04-25T07:14:01;5.00;;;4.60;;
2480;SDS011;57396;48.742;9.128;2023-04-25T07:16:26;4.90;;;4.30;;
2480;SDS011;57396;48.742;9.128;2023-04-25T07:18:51;4.83;;;4.33;;
2480;SDS011;57396;48.742;9.128;2023-04-25T07:21:17;5.60;;;4.87;;
2480;SDS011;57396;48.742;9.128;2023-04-25T07:23:42;4.20;;;3.80;;
2480;SDS011;57396;48.742;9.128;2023-04-25T07:26:08;4.13;;;3.83;;
2480;SDS011;57396;48.742;9.128;2023-04-25T07:28:33;5.90;;;3.73;;
2480;SDS011;57396;48.742;9.128;2023-04-25T07:30:59;4.50;;;4.10;;
2480;SDS011;57396;48.742;9.128;2023-04-25T07:33:24;5.93;;;4.23;;
2480;SDS011;57396;48.742;9.128;2023-04-25T07:35:50;4.63;;;4.20;;
2480;SDS011;57396;48.742;9.128;2023-04-25T07:38:15;5.20;;;4.70;;
2480;SDS011;57396;48.742;9.128;2023-04-25T07:40:40;6.57;;;4.40;;
2480;SDS011;57396;48.742;9.128;2023-04-25T07:43:06;5.03;;;4.60;;
2480;SDS011;57396;48.742;9.128;2023-04-25T07:45:31;5.10;;;4.60;;
2480;SDS011;57396;48.742;9.128;2023-04-25T07:47:57;6.27;;;4.50;;
2480;SDS011;57396;48.742;9.128;2023-04-25T07:50:22;4.10;;;3.70;;
2480;SDS011;57396;48.742;9.128;2023-04-25T07:52:48;4.60;;;4.10;;
2480;SDS011;57396;48.742;9.128;2023-04-25T07:55:14;5.63;;;3.67;;
2480;SDS011;57396;48.742;9.128;2023-04-25T07:57:39;4.23;;;3.80;;
2480;SDS011;57396;48.742;9.128;2023-04-25T08:00:05;4.77;;;4.27;;
2480;SDS011;57396;48.742;9.128;2023-04-25T08:02:34;8.83;;;4.30;;
2480;SDS011;57396;48.742;9.128;2023-04-25T08:05:01;4.37;;;4.07;;
2480;SDS011;57396;48.742;9.128;2023-04-25T08:07:27;4.63;;;4.20;;
2480;SDS011;57396;48.742;9.128;2023-04-25T08:09:53;5.00;;;4.50;;
2480;SDS011;57396;48.742;9.128;2023-04-25T08:12:19;5.70;;;3.83;;
2480;SDS011;57396;48.742;9.128;2023-04-25T08:14:44;5.37;;;4.07;;
2480;SDS011;57396;48.742;9.128;2023-04-25T08:17:10;4.10;;;3.60;;
2480;SDS011;57396;48.742;9.128;2023-04-25T08:19:35;4.90;;;4.33;;
2480;SDS011;57396;48.742;9.128;2023-04-25T08:22:01;5.43;;;4.30;;
2480;SDS011;57396;48.742;9.128;2023-04-25T08:24:27;4.50;;;4.10;;
2480;SDS011;57396;48.742;9.128;2023-04-25T08:26:52;5.73;;;4.73;;
2480;SDS011;57396;48.742;9.128;2023-04-25T08:29:18;5.30;;;4.80;;
2480;SDS011;57396;48.742;9.128;2023-04-25T08:31:44;5.70;;;5.10;;
2480;SDS011;57396;48.742;9.128;2023-04-25T08:34:10;6.73;;;4.90;;
2480;SDS011;57396;48.742;9.128;2023-04-25T08:36:36;4.77;;;4.20;;
2480;SDS011;57396;48.742;9.128;2023-04-25T08:39:02;5.10;;;4.60;;
2480;SDS011;57396;48.742;9.128;2023-04-25T08:41:27;7.87;;;4.50;;
2480;SDS011;57396;48.742;9.128;2023-04-25T08:43:53;6.53;;;5.00;;
2480;SDS011;57396;48.742;9.128;2023-04-25T08:46:18;8.77;;;4.90;;
2480;SDS011;57396;48.742;9.128;2023-04-25T08:48:45;6.07;;;4.90;;
2480;SDS011;57396;48.742;9.128;2023-04-25T08:51:15;5.03;;;4.63;;
2480;SDS011;57396;48.742;9.128;2023-04-25T08:53:44;6.70;;;5.40;;
2480;SDS011;57396;48.742;9.128;2023-04-25T08:56:10;6.40;;;4.60;;
2480;SDS011;57396;48.742;9.128;2023-04-25T08:58:38;6.57;;;5.43;;
2480;SDS011;57396;48.742;9.128;2023-04-25T09:01:04;6.53;;;5.00;;
2480;SDS011;57396;48.742;9.128;2023-04-25T09:03:29;5.10;;;4.30;;
2480;SDS011;57396;48.742;9.128;2023-04-25T09:05:55;6.47;;;5.80;;
2480;SDS011;57396;48.742;9.128;2023-04-25T09:08:21;6.50;;;5.30;;
2480;SDS011;57396;48.742;9.128;2023-04-25T09:10:46;8.20;;;5.20;;
2480;SDS011;57396;48.742;9.128;2023-04-25T09:13:13;7.00;;;5.13;;
2480;SDS011;57396;48.742;9.128;2023-04-25T09:15:49;5.30;;;4.80;;
2480;SDS011;57396;48.742;9.128;2023-04-25T09:18:26;5.97;;;5.10;;
2480;SDS011;57396;48.742;9.128;2023-04-25T09:21:11;7.67;;;4.20;;
2480;SDS011;57396;48.742;9.128;2023-04-25T09:23:47;4.30;;;3.90;;
2480;SDS011;57396;48.742;9.128;2023-04-25T09:26:14;5.57;;;4.73;;
2480;SDS011;57396;48.742;9.128;2023-04-25T09:28:40;5.57;;;4.50;;
2480;SDS011;57396;48.742;9.128;2023-04-25T09:31:09;4.83;;;4.43;;
2480;SDS011;57396;48.742;9.128;2023-04-25T09:33:35;5.17;;;3.80;;
2480;SDS011;57396;48.742;9.128;2023-04-25T09:36:06;5.00;;;3.87;;
2480;SDS011;57396;48.742;9.128;2023-04-25T09:38:40;3.93;;;3.63;;
2480;SDS011;57396;48.742;9.128;2023-04-25T09:41:09;4.57;;;4.00;;
2480;SDS011;57396;48.742;9.128;2023-04-25T09:43:35;6.70;;;3.83;;
2480;SDS011;57396;48.742;9.128;2023-04-25T09:46:01;4.07;;;3.67;;
2480;SDS011;57396;48.742;9.128;2023-04-25T09:48:27;5.70;;;3.80;;
2480;SDS011;57396;48.742;9.128;2023-04-25T09:51:14;4.50;;;4.10;;
2480;SDS011;57396;48.742;9.128;2023-04-25T09:53:41;4.20;;;3.90;;
2480;SDS011;57396;48.742;9.128;2023-04-25T09:56:11;3.97;;;3.67;;
2480;SDS011;57396;48.742;9.128;2023-04-25T09:58:38;4.00;;;3.33;;
2480;SDS011;57396;48.742;9.128;2023-04-25T10:01:10;3.47;;;3.17;;
2480;SDS011;57396;48.742;9.128;2023-04-25T10:03:37;3.40;;;2.40;;
2480;SDS011;57396;48.742;9.128;2023-04-25T10:06:08;2.03;;;1.93;;
2480;SDS011;57396;48.742;9.128;2023-04-25T10:08:36;3.30;;;2.13;;
2480;SDS011;57396;48.742;9.128;2023-04-25T10:11:06;2.17;;;1.97;;
2480;SDS011;57396;48.742;9.128;2023-04-25T10:13:32;1.60;;;1.50;;
2480;SDS011;57396;48.742;9.128;2023-04-25T10:15:58;2.40;;;2.20;;
2480;SDS011;57396;48.742;9.128;2023-04-25T10:18:28;1.63;;;1.40;;
2480;SDS011;57396;48.742;9.128;2023-04-25T10:20:55;1.83;;;1.50;;
2480;SDS011;57396;48.742;9.128;2023-04-25T10:23:22;1.70;;;1.50;;
2480;SDS011;57396;48.742;9.128;2023-04-25T10:25:48;1.70;;;1.60;;
2480;SDS011;57396;48.742;9.128;2023-04-25T10:28:15;3.20;;;1.20;;
2480;SDS011;57396;48.742;9.128;2023-04-25T10:31:00;1.30;;;1.20;;
2480;SDS011;57396;48.742;9.128;2023-04-25T10:33:36;1.30;;;1.20;;
2480;SDS011;57396;48.742;9.128;2023-04-25T10:36:17;1.20;;;1.00;;
2480;SDS011;57396;48.742;9.128;2023-04-25T10:38:44;1.33;;;1.23;;
2480;SDS011;57396;48.742;9.128;2023-04-25T10:41:11;2.60;;;1.10;;
2480;SDS011;57396;48.742;9.128;2023-04-25T10:43:43;2.13;;;1.47;;
2480;SDS011;57396;48.742;9.128;2023-04-25T10:46:25;1.57;;;1.47;;
2480;SDS011;57396;48.742;9.128;2023-04-25T10:48:53;1.43;;;1.33;;
2480;SDS011;57396;48.742;9.128;2023-04-25T10:51:26;1.60;;;1.40;;
2480;SDS011;57396;48.742;9.128;2023-04-25T10:53:56;1.63;;;1.50;;
2480;SDS011;57396;48.742;9.128;2023-04-25T10:56:24;1.50;;;1.40;;
2480;SDS011;57396;48.742;9.128;2023-04-25T10:58:51;1.70;;;1.60;;
2480;SDS011;57396;48.742;9.128;2023-04-25T11:01:20;2.00;;;1.57;;
2480;SDS011;57396;48.742;9.128;2023-04-25T11:03:46;1.83;;;1.30;;
2480;SDS011;57396;48.742;9.128;2023-04-25T11:09:18;2.60;;;2.00;;
2480;SDS011;57396;48.742;9.128;2023-04-25T11:11:47;2.40;;;2.20;;
2480;SDS011;57396;48.742;9.128;2023-04-25T11:14:19;2.77;;;2.53;;
2480;SDS011;57396;48.742;9.128;2023-04-25T11:16:45;3.87;;;2.67;;
2480;SDS011;57396;48.742;9.128;2023-04-25T11:19:10;2.70;;;2.50;;
2480;SDS011;57396;48.742;9.128;2023-04-25T11:21:36;3.07;;;2.83;;
2480;SDS011;57396;48.742;9.128;2023-04-25T11:24:02;2.90;;;2.60;;
2480;SDS011;57396;48.742;9.128;2023-04-25T11:26:27;3.00;;;2.70;;
2480;SDS011;57396;48.742;9.128;2023-04-25T11:28:56;2.50;;;2.30;;
2480;SDS011;57396;48.742;9.128;2023-04-25T11:31:24;5.73;;;2.50;;
2480;SDS011;57396;48.742;9.128;2023-04-25T11:33:50;3.47;;;2.60;;
2480;SDS011;57396;48.742;9.128;2023-04-25T11:36:16;3.07;;;2.70;;
2480;SDS011;57396;48.742;9.128;2023-04-25T11:38:42;2.37;;;2.20;;
2480;SDS011;57396;48.742;9.128;2023-04-25T11:41:07;3.03;;;2.53;;
2480;SDS011;57396;48.742;9.128;2023-04-25T11:43:32;2.37;;;2.17;;
2480;SDS011;57396;48.742;9.128;2023-04-25T11:45:58;3.17;;;2.60;;
2480;SDS011;57396;48.742;9.128;2023-04-25T11:48:23;2.67;;;2.20;;
2480;SDS011;57396;48.742;9.128;2023-04-25T11:50:49;3.20;;;1.90;;
2480;SDS011;57396;48.742;9.128;2023-04-25T11:53:14;2.50;;;2.30;;
2480;SDS011;57396;48.742;9.128;2023-04-25T11:55:42;2.70;;;2.20;;
2480;SDS011;57396;48.742;9.128;2023-04-25T11:58:08;2.47;;;2.27;;
2480;SDS011;57396;48.742;9.128;2023-04-25T12:00:33;3.03;;;2.70;;
2480;SDS011;57396;48.742;9.128;2023-04-25T12:02:59;3.17;;;2.53;;
2480;SDS011;57396;48.742;9.128;2023-04-25T12:05:26;2.83;;;2.63;;
2480;SDS011;57396;48.742;9.128;2023-04-25T12:07:53;2.80;;;2.60;;
2480;SDS011;57396;48.742;9.128;2023-04-25T12:10:19;6.33;;;4.73;;
2480;SDS011;57396;48.742;9.128;2023-04-25T12:12:46;7.30;;;5.87;;
2480;SDS011;57396;48.742;9.128;2023-04-25T12:15:13;8.63;;;4.07;;
2480;SDS011;57396;48.742;9.128;2023-04-25T12:17:59;4.47;;;4.07;;
2480;SDS011;57396;48.742;9.128;2023-04-25T12:20:27;6.77;;;4.13;;
2480;SDS011;57396;48.742;9.128;2023-04-25T12:22:53;8.77;;;7.37;;
2480;SDS011;57396;48.742;9.128;2023-04-25T12:28:13;5.20;;;4.40;;
2480;SDS011;57396;48.742;9.128;2023-04-25T12:33:25;7.47;;;5.07;;
2480;SDS011;57396;48.742;9.128;2023-04-25T12:35:51;6.83;;;6.13;;
2480;SDS011;57396;48.742;9.128;2023-04-25T12:38:24;6.67;;;5.03;;
2480;SDS011;57396;48.742;9.128;2023-04-25T12:40:51;6.03;;;4.67;;
2480;SDS011;57396;48.742;9.128;2023-04-25T12:43:17;9.17;;;5.33;;
2480;SDS011;57396;48.742;9.128;2023-04-25T12:45:43;5.70;;;5.20;;
2480;SDS011;57396;48.742;9.128;2023-04-25T12:48:09;7.30;;;5.70;;
2480;SDS011;57396;48.742;9.128;2023-04-25T12:50:35;6.50;;;5.43;;
2480;SDS011;57396;48.742;9.128;2023-04-25T12:53:00;8.33;;;5.30;;
2480;SDS011;57396;48.742;9.128;2023-04-25T12:55:26;5.90;;;4.73;;
2480;SDS011;57396;48.742;9.128;2023-04-25T12:57:51;7.33;;;4.87;;
2480;SDS011;57396;48.742;9.128;2023-04-25T13:00:17;7.50;;;5.17;;
2480;SDS011;57396;48.742;9.128;2023-04-25T13:02:44;5.30;;;4.57;;
2480;SDS011;57396;48.742;9.128;2023-04-25T13:05:11;6.50;;;5.00;;
2480;SDS011;57396;48.742;9.128;2023-04-25T13:07:36;5.50;;;4.90;;
2480;SDS011;57396;48.742;9.128;2023-04-25T13:10:02;6.63;;;5.57;;
2480;SDS011;57396;48.742;9.128;2023-04-25T13:12:28;5.20;;;4.70;;
2480;SDS011;57396;48.742;9.128;2023-04-25T13:14:53;6.87;;;4.30;;
2480;SDS011;57396;48.742;9.128;2023-04-25T13:17:19;6.23;;;4.90;;
2480;SDS011;57396;48.742;9.128;2023-04-25T13:19:44;4.97;;;4.47;;
2480;SDS011;57396;48.742;9.128;2023-04-25T13:22:10;10.40;;;5.30;;
2480;SDS011;57396;48.742;9.128;2023-04-25T13:24:36;5.70;;;5.10;;
2480;SDS011;57396;48.742;9.128;2023-04-25T13:27:01;7.40;;;4.93;;
2480;SDS011;57396;48.742;9.128;2023-04-25T13:29:26;5.70;;;4.60;;
2480;SDS011;57396;48.742;9.128;2023-04-25T13:31:52;5.87;;;5.27;;
2480;SDS011;57396;48.742;9.128;2023-04-25T13:34:17;10.13;;;4.97;;
2480;SDS011;57396;48.742;9.128;2023-04-25T13:36:43;9.20;;;6.03;;
2480;SDS011;57396;48.742;9.128;2023-04-25T13:39:08;6.90;;;5.77;;
2480;SDS011;57396;48.742;9.128;2023-04-25T13:41:34;7.00;;;5.90;;
2480;SDS011;57396;48.742;9.128;2023-04-25T13:43:59;7.10;;;5.40;;
2480;SDS011;57396;48.742;9.128;2023-04-25T13:46:26;9.33;;;5.63;;
2480;SDS011;57396;48.742;9.128;2023-04-25T13:48:51;7.93;;;6.17;;
2480;SDS011;57396;48.742;9.128;2023-04-25T13:51:17;8.83;;;6.80;;
2480;SDS011;57396;48.742;9.128;2023-04-25T13:53:42;8.07;;;7.00;;
2480;SDS011;57396;48.742;9.128;2023-04-25T13:56:08;12.23;;;7.43;;
2480;SDS011;57396;48.742;9.128;2023-04-25T13:58:33;10.70;;;8.00;;
2480;SDS011;57396;48.742;9.128;2023-04-25T14:00:59;8.10;;;6.50;;
2480;SDS011;57396;48.742;9.128;2023-04-25T14:03:25;8.10;;;6.93;;
2480;SDS011;57396;48.742;9.128;2023-04-25T14:05:50;7.10;;;6.23;;
2480;SDS011;57396;48.742;9.128;2023-04-25T14:08:16;6.37;;;5.80;;
2480;SDS011;57396;48.742;9.128;2023-04-25T14:10:41;7.87;;;7.13;;
2480;SDS011;57396;48.742;9.128;2023-04-25T14:13:07;8.80;;;6.40;;
2480;SDS011;57396;48.742;9.128;2023-04-25T14:15:32;8.73;;;6.80;;
2480;SDS011;57396;48.742;9.128;2023-04-25T14:17:59;8.93;;;6.10;;
2480;SDS011;57396;48.742;9.128;2023-04-25T14:20:25;7.73;;;6.33;;
2480;SDS011;57396;48.742;9.128;2023-04-25T14:22:51;6.90;;;6.00;;
2480;SDS011;57396;48.742;9.128;2023-04-25T14:25:18;11.37;;;6.30;;
2480;SDS011;57396;48.742;9.128;2023-04-25T14:27:44;9.00;;;6.97;;
2480;SDS011;57396;48.742;9.128;2023-04-25T14:30:14;6.60;;;5.90;;
2480;SDS011;57396;48.742;9.128;2023-04-25T14:32:40;7.87;;;6.20;;
2480;SDS011;57396;48.742;9.128;2023-04-25T14:35:05;6.23;;;5.63;;
2480;SDS011;57396;48.742;9.128;2023-04-25T14:37:32;9.80;;;5.70;;
2480;SDS011;57396;48.742;9.128;2023-04-25T14:39:58;7.20;;;5.40;;
2480;SDS011;57396;48.742;9.128;2023-04-25T14:42:23;4.87;;;4.37;;
2480;SDS011;57396;48.742;9.128;2023-04-25T14:44:48;4.47;;;4.07;;
2480;SDS011;57396;48.742;9.128;2023-04-25T14:47:14;4.67;;;4.20;;
2480;SDS011;57396;48.742;9.128;2023-04-25T14:49:41;5.27;;;4.43;;
2480;SDS011;57396;48.742;9.128;2023-04-25T14:52:06;6.57;;;4.23;;
2480;SDS011;57396;48.742;9.128;2023-04-25T14:54:31;4.30;;;4.00;;
2480;SDS011;57396;48.742;9.128;2023-04-25T14:56:58;4.50;;;4.10;;
2480;SDS011;57396;48.742;9.128;2023-04-25T14:59:23;5.00;;;4.00;;
2480;SDS011;57396;48.742;9.128;2023-04-25T15:01:49;6.43;;;5.00;;
2480;SDS011;57396;48.742;9.128;2023-04-25T15:04:15;8.20;;;4.10;;